Flight Track Log - Related Links

Times and Time Zones

All times are in EDT time to prevent confusion due to time zone crossing. See the WBR2634 flight status page for this flight to view local times or setup timezone preferences in your user account.

Time Position Orientation Groundspeed Altitude Reporting Facility
EDT Latitude Longitude Course Direction KTS MPH feet Rate Location/Type
Tue 05:43:33 PM 40.8211 -91.0678 73° East 124 143 2,600  Level Chicago Center
Tue 05:44:35 PM 40.8336 -91.0131 73° East 130 150 3,500 935 Climbing Chicago Center
Tue 05:46:39 PM 40.8578 -90.9183 73° East 134 154 5,500 935 Climbing Chicago Center
Tue 05:47:41 PM 40.8700 -90.8731 70° East 133 153 6,400 898 Climbing Chicago Center
Tue 05:49:46 PM 40.8925 -90.7819 72° East 133 153 8,300 866 Climbing Chicago Center
Tue 05:50:48 PM 40.9047 -90.7217 75° East 135 155 9,100 258 Climbing Chicago Center
Tue 05:52:52 PM 40.9319 -90.6083 73° East 161 185 9,100 -32 Level Chicago Center
Tue 05:53:00 PM 40.9750 -90.5918 73° East  Level Estimated
Tue 05:53:54 PM 40.9464 -90.5556 70° East 156 180 9,000  Level Chicago Center
Tue 05:54:56 PM 40.9583 -90.4992 74° East 156 180 9,100 532 Climbing Chicago Center
Tue 05:55:58 PM 40.9686 -90.4461 76° East 154 177 10,100 968 Climbing Chicago Center
Tue 05:57:00 PM 40.9817 -90.3850 74° East 149 171 11,100 289 Climbing Chicago Center
Tue 05:59:05 PM 41.0119 -90.2744 70° East 161 185 11,000 -32 Descending Chicago Center
Tue 06:00:07 PM 41.0228 -90.2164 76° East 161 185 11,000  Level Chicago Center
Tue 06:01:09 PM 41.0361 -90.1600 73° East 161 185 11,000  Level Chicago Center
Tue 06:02:11 PM 41.0503 -90.1039 71° East 161 185 11,000  Level Chicago Center
Tue 06:04:15 PM 41.0753 -89.9764 75° East 161 185 11,000  Level Chicago Center
Tue 06:05:17 PM 41.0881 -89.9200 73° East 161 185 11,000 48 Level Chicago Center
Tue 06:06:19 PM 41.1025 -89.8650 71° East 160 184 11,100  Climbing Chicago Center
Tue 06:07:22 PM 41.1147 -89.8072 74° East 160 184 11,000  Descending Chicago Center
Tue 06:08:24 PM 41.1281 -89.7508 73° East 160 184 11,100  Climbing Chicago Center
Tue 06:09:26 PM 41.1397 -89.6928 75° East 160 184 11,000  Descending Chicago Center
Tue 06:10:28 PM 41.1528 -89.6211 76° East 165 190 11,100 -97 Climbing Chicago Center
Tue 06:11:30 PM 41.1669 -89.5650 71° East 164 189 10,800 -387 Descending Chicago Center
Tue 06:12:32 PM 41.1856 -89.5106 66° East 164 189 10,300 -726 Descending Chicago Center
Tue 06:13:34 PM 41.2106 -89.4614 56° Northeast 163 188 9,300 -968 Descending Chicago Center
Tue 06:14:36 PM 41.2311 -89.4025 65° Northeast 168 193 8,300 -629 Descending Chicago Center
Tue 06:15:38 PM 41.2539 -89.3472 61° Northeast 170 196 8,000 -144 Descending Chicago Center
Tue 06:16:41 PM 41.2744 -89.2994 60° Northeast 155 178 8,000 48 Level Chicago Center
Tue 06:17:43 PM 41.2981 -89.2408 62° Northeast 153 176 8,100  Climbing Chicago Center
Tue 06:18:45 PM 41.3206 -89.1939 57° Northeast 152 175 8,000  Descending Chicago Center
Tue 06:19:47 PM 41.3383 -89.1483 63° Northeast 152 175 8,100  Climbing Chicago Center
Tue 06:20:49 PM 41.3639 -89.0900 60° Northeast 152 175 8,000 -48 Descending Chicago Center
Tue 06:21:51 PM 41.3842 -89.0397 62° Northeast 152 175 8,000  Level Chicago Center
Tue 06:22:53 PM 41.4050 -88.9914 60° Northeast 152 175 8,000  Level Chicago Center
Tue 06:23:55 PM 41.4253 -88.9436 60° Northeast 152 175 8,000 48 Level Chicago Center
Tue 06:24:57 PM 41.4461 -88.8928 61° Northeast 152 175 8,100 48 Climbing Chicago Center
Tue 06:25:59 PM 41.4675 -88.8308 65° Northeast 155 178 8,100 -48 Level Chicago Center
Tue 06:27:01 PM 41.4867 -88.7803 63° Northeast 155 178 8,000 -48 Descending Chicago Center
Tue 06:28:04 PM 41.5072 -88.7253 63° Northeast 155 178 8,000  Level Chicago Center
Tue 06:29:06 PM 41.5275 -88.6764 61° Northeast 152 175 8,000  Level Chicago Center
Tue 06:30:08 PM 41.5486 -88.6231 62° Northeast 152 175 8,000  Level Chicago Center
Tue 06:31:10 PM 41.5667 -88.5717 65° Northeast 153 176 8,000  Level Chicago Center
Tue 06:32:12 PM 41.5953 -88.5258 50° Northeast 152 175 8,000  Level Chicago Center
Tue 06:33:14 PM 41.6242 -88.4864 46° Northeast 149 171 8,000  Level Chicago Center
Tue 06:34:16 PM 41.6517 -88.4431 50° Northeast 144 166 8,000  Level Chicago Center
Tue 06:35:18 PM 41.6536 -88.3847 87° East 160 184 8,000  Level Chicago Center
Tue 06:36:20 PM 41.6453 -88.3244 100° East 162 186 8,000  Level Chicago Center
Tue 06:37:23 PM 41.6483 -88.2639 86° East 159 183 8,000  Level Chicago Center
Tue 06:38:25 PM 41.6836 -88.2414 25° Northeast 143 165 8,000  Level Chicago Center
Tue 06:39:59 PM 41.7500 -88.2333 North 136 157 8,000  Level Chicago TRACON
Tue 06:40:29 PM 41.7636 -88.2403 339° North 139 160 8,000  Level Chicago Center
Tue 06:41:31 PM 41.8069 -88.2397 North 141 162 8,000  Level Chicago Center
Tue 06:42:33 PM 41.8469 -88.2392 North 142 163 8,000 -97 Level Chicago Center
Tue 06:43:35 PM 41.8678 -88.2789 305° West 150 173 7,800 -581 Descending Chicago Center
Tue 06:44:37 PM 41.8647 -88.3419 266° West 169 194 6,800 -871 Descending Chicago Center
Tue 06:45:39 PM 41.8586 -88.4094 263° West 170 196 6,000 -339 Descending Chicago Center
Tue 06:46:41 PM 41.8533 -88.4636 263° West 150 173 6,100  Climbing Chicago Center
Tue 06:48:46 PM 41.8525 -88.5689 269° West 139 160 6,000 -24 Descending Chicago Center
Tue 06:50:50 PM 41.9236 -88.5478 12° North 158 182 6,000 -226 Level Chicago Center
Tue 06:51:52 PM 41.9439 -88.4917 64° Northeast 172 198 5,300 -283 Descending Chicago Center
Tue 06:54:01 PM 41.9667 -88.3500 78° East 171 197 5,100 -95 Descending Chicago TRACON
Tue 06:55:01 PM 41.9667 -88.2833 90° East 180 207 5,000 -50 Descending Chicago TRACON
Tue 06:56:00 PM 41.9628 -88.2269 95° East 174 200 5,000 -344 Level Chicago Center
Tue 06:57:03 PM 41.9622 -88.1617 91° East 174 200 4,300 -1,056 Descending Chicago Center
Tue 06:58:05 PM 41.9636 -88.0875 89° East 180 207 2,800 -1,079 Descending Chicago Center
Tue 07:00:01 PM 41.9667 -87.9667 88° East 168 193 1,100 -645 Descending Chicago TRACON
Tue 07:01:11 PM 41.9650 -87.8961 92° East 167 192 800 -257 Descending Chicago Center

Login

Don't have an account? Register now (free) for customized features, flight alerts, and more!